Time;durP1;ratioP1;P1;durP2;ratioP2;P2;SDS_P1;SDS_P2;PMS_P1;PMS_P2;Temp;Humidity;BMP_temperature;BMP_pressure;BME280_temperature;BME280_humidity;BME280_pressure;Samples;Min_cycle;Max_cycle;Signal;HPM_P1;HPM_P2
2023/03/15 00:02:03;;;;;;;0.55;0.55;;;5.90;74.30;;;;;;5022162;28;20022;-73
2023/03/15 00:04:31;;;;;;;0.55;0.55;;;5.70;74.30;;;;;;5028520;28;20448;-74
2023/03/15 00:06:57;;;;;;;1.58;0.55;;;5.60;74.60;;;;;;5020425;28;20509;-73
2023/03/15 00:09:23;;;;;;;0.50;0.50;;;5.50;75.20;;;;;;5023487;28;20029;-64
2023/03/15 00:11:50;;;;;;;0.40;0.40;;;5.40;75.60;;;;;;5027289;28;20033;-64
2023/03/15 00:14:16;;;;;;;0.40;0.40;;;5.30;76.20;;;;;;5029755;28;20025;-64
2023/03/15 00:16:42;;;;;;;0.43;0.43;;;5.20;76.40;;;;;;5009378;28;20057;-65
2023/03/15 00:19:09;;;;;;;0.52;0.47;;;5.20;76.60;;;;;;5008129;28;20049;-65
2023/03/15 00:21:35;;;;;;;0.50;0.50;;;5.20;76.40;;;;;;5019910;28;20595;-66
2023/03/15 00:24:01;;;;;;;0.45;0.45;;;5.20;76.20;;;;;;5007703;28;20057;-65
2023/03/15 00:26:27;;;;;;;0.47;0.20;;;5.10;76.40;;;;;;5011311;28;20061;-71
2023/03/15 00:28:52;;;;;;;0.70;0.40;;;5.10;76.70;;;;;;5023340;28;20048;-71
2023/03/15 00:31:24;;;;;;;0.47;0.35;;;5.10;76.70;;;;;;5008450;28;20550;-72
2023/03/15 00:33:53;;;;;;;1.70;0.30;;;5.10;76.70;;;;;;5023567;28;20078;-71
2023/03/15 00:36:23;;;;;;;0.20;0.20;;;5.10;76.80;;;;;;5018897;28;20045;-72
2023/03/15 00:38:50;;;;;;;0.73;0.22;;;5.20;76.80;;;;;;5024131;28;20120;-71
2023/03/15 00:41:17;;;;;;;0.30;0.30;;;5.10;76.70;;;;;;5026887;28;20033;-64
2023/03/15 00:43:44;;;;;;;0.32;0.32;;;5.20;76.80;;;;;;5028065;28;20548;-64
2023/03/15 00:46:10;;;;;;;0.22;0.22;;;5.20;76.90;;;;;;5026170;28;20060;-64
2023/03/15 00:48:36;;;;;;;0.30;0.30;;;5.20;76.90;;;;;;5017861;28;20029;-63
2023/03/15 00:51:14;;;;;;;0.75;0.30;;;5.10;77.10;;;;;;5005495;28;20033;-64
2023/03/15 00:53:42;;;;;;;0.28;0.28;;;5.10;77.30;;;;;;5028555;28;20030;-64
2023/03/15 00:56:11;;;;;;;0.38;0.30;;;5.00;77.40;;;;;;5024903;28;20112;-64
2023/03/15 00:58:37;;;;;;;0.40;0.35;;;5.10;77.60;;;;;;5024457;28;20369;-64
2023/03/15 01:01:12;;;;;;;0.38;0.38;;;5.00;77.70;;;;;;5025568;28;20520;-64
2023/03/15 01:03:39;;;;;;;0.55;0.52;;;5.00;77.80;;;;;;5026856;28;20472;-72
2023/03/15 01:06:07;;;;;;;0.90;0.70;;;5.00;77.80;;;;;;5020507;28;20065;-65
2023/03/15 01:08:33;;;;;;;0.75;0.60;;;5.10;78.00;;;;;;5026083;28;20041;-65
2023/03/15 01:11:08;;;;;;;2.28;0.68;;;5.00;78.00;;;;;;5012840;28;20026;-63
2023/03/15 01:13:34;;;;;;;0.85;0.73;;;5.00;78.10;;;;;;5033498;28;20517;-64
2023/03/15 01:15:59;;;;;;;0.80;0.50;;;5.00;78.10;;;;;;5029456;28;20510;-67
2023/03/15 01:18:25;;;;;;;3.75;1.17;;;5.00;77.90;;;;;;5029620;28;20018;-68
2023/03/15 01:20:51;;;;;;;0.50;0.50;;;5.00;78.00;;;;;;5032290;28;20038;-65
2023/03/15 01:23:17;;;;;;;0.70;0.70;;;5.00;78.20;;;;;;5028954;28;20021;-65
2023/03/15 01:25:42;;;;;;;0.70;0.65;;;4.90;78.20;;;;;;5010194;28;20064;-64
2023/03/15 01:28:08;;;;;;;1.67;0.68;;;5.00;78.40;;;;;;5015692;28;20057;-65
2023/03/15 01:30:34;;;;;;;0.73;0.45;;;5.00;79.00;;;;;;5011480;28;20038;-64
2023/03/15 01:32:59;;;;;;;0.73;0.70;;;4.90;78.80;;;;;;5009448;28;20041;-64
2023/03/15 01:35:25;;;;;;;0.70;0.60;;;4.90;78.90;;;;;;5013125;28;20042;-71
2023/03/15 01:37:51;;;;;;;0.90;0.70;;;4.90;78.90;;;;;;5011357;28;20069;-72
2023/03/15 01:40:17;;;;;;;3.33;0.80;;;5.00;78.60;;;;;;5008997;28;20033;-72
2023/03/15 01:43:01;;;;;;;1.27;0.80;;;5.00;78.60;;;;;;5008689;28;20026;-65
2023/03/15 01:45:53;;;;;;;1.05;0.70;;;5.10;78.50;;;;;;5008073;28;20109;-64
2023/03/15 01:48:22;;;;;;;0.83;0.80;;;5.10;78.50;;;;;;5001524;28;20046;-65
2023/03/15 01:50:48;;;;;;;0.80;0.70;;;5.10;78.60;;;;;;5006901;28;20068;-64
2023/03/15 01:53:15;;;;;;;1.13;0.85;;;5.10;78.70;;;;;;5000993;28;20073;-65
2023/03/15 01:55:41;;;;;;;1.75;0.90;;;5.10;78.80;;;;;;5005444;28;20034;-65
2023/03/15 01:58:08;;;;;;;0.47;0.47;;;5.10;78.80;;;;;;5007558;28;20041;-65
2023/03/15 02:00:34;;;;;;;1.10;0.80;;;5.20;78.90;;;;;;5008220;28;20033;-65
2023/03/15 02:03:16;;;;;;;0.80;0.75;;;5.10;79.10;;;;;;5007723;28;20029;-64
2023/03/15 02:06:04;;;;;;;1.90;1.07;;;5.20;79.00;;;;;;5008231;28;20034;-65
2023/03/15 02:08:36;;;;;;;0.77;0.63;;;5.30;78.90;;;;;;5008594;28;20361;-64
2023/03/15 02:11:03;;;;;;;2.45;1.02;;;5.20;79.00;;;;;;5008424;28;20022;-66
2023/03/15 02:13:31;;;;;;;2.45;0.98;;;5.30;78.80;;;;;;5008485;28;20053;-65
2023/03/15 02:15:58;;;;;;;1.02;0.90;;;5.30;78.70;;;;;;5003562;28;20033;-64
2023/03/15 02:18:24;;;;;;;1.98;0.70;;;5.30;78.90;;;;;;5007930;28;20034;-65
2023/03/15 02:21:07;;;;;;;0.88;0.82;;;5.30;79.00;;;;;;5008587;28;20486;-74
2023/03/15 02:23:33;;;;;;;0.82;0.73;;;5.30;78.90;;;;;;5007800;28;20033;-73
2023/03/15 02:26:14;;;;;;;1.73;0.98;;;5.20;78.90;;;;;;5010594;28;20087;-73
2023/03/15 02:28:41;;;;;;;0.88;0.80;;;5.20;79.00;;;;;;5027461;28;20051;-73
2023/03/15 02:31:07;;;;;;;2.97;0.60;;;5.20;79.50;;;;;;5031979;28;20041;-65
2023/03/15 02:33:45;;;;;;;1.02;0.93;;;5.10;79.50;;;;;;4993435;28;20025;-74
2023/03/15 02:36:21;;;;;;;1.08;0.57;;;5.20;79.40;;;;;;5024295;28;20044;-73
2023/03/15 02:38:48;;;;;;;0.70;0.70;;;5.20;79.20;;;;;;5021436;28;20040;-72
2023/03/15 02:41:36;;;;;;;1.95;0.85;;;5.20;79.20;;;;;;5029934;28;20351;-73
2023/03/15 02:44:18;;;;;;;1.90;1.15;;;5.20;79.00;;;;;;5019806;28;20030;-66
2023/03/15 02:46:46;;;;;;;1.48;1.02;;;5.10;80.00;;;;;;5028280;28;20491;-65
2023/03/15 02:49:12;;;;;;;1.40;1.20;;;5.10;79.60;;;;;;4994697;28;20060;-64
2023/03/15 02:51:38;;;;;;;1.45;0.73;;;5.10;79.70;;;;;;5025750;28;20429;-74
2023/03/15 02:54:04;;;;;;;1.23;1.02;;;5.10;79.70;;;;;;5011612;28;20036;-72
2023/03/15 02:56:32;;;;;;;3.35;1.50;;;5.00;79.90;;;;;;5027364;28;20040;-65
2023/03/15 02:58:58;;;;;;;1.20;1.02;;;5.00;79.90;;;;;;5010542;28;20026;-64
2023/03/15 03:01:24;;;;;;;1.58;1.13;;;5.00;79.80;;;;;;5028602;28;20025;-64
2023/03/15 03:03:49;;;;;;;1.65;1.25;;;5.00;79.90;;;;;;5027979;28;20021;-72
2023/03/15 03:06:16;;;;;;;1.23;1.10;;;5.00;80.10;;;;;;5024859;28;20581;-65
2023/03/15 03:08:45;;;;;;;1.77;1.58;;;5.00;79.90;;;;;;5025943;28;20159;-66
2023/03/15 03:11:14;;;;;;;1.55;1.30;;;5.00;80.00;;;;;;5029079;28;20392;-72
2023/03/15 03:13:41;;;;;;;1.40;1.30;;;4.90;79.90;;;;;;5027765;28;20040;-73
2023/03/15 03:16:07;;;;;;;1.88;1.25;;;4.90;80.00;;;;;;5021239;28;20037;-73
2023/03/15 03:18:34;;;;;;;2.63;1.25;;;4.90;80.10;;;;;;5028214;28;20032;-65
2023/03/15 03:21:02;;;;;;;2.50;1.30;;;4.90;80.30;;;;;;5028797;28;20067;-73
2023/03/15 03:23:29;;;;;;;2.13;1.30;;;5.00;80.30;;;;;;5029817;28;20030;-72
2023/03/15 03:25:56;;;;;;;1.45;0.90;;;5.00;80.10;;;;;;5028422;28;20030;-65
2023/03/15 03:28:24;;;;;;;1.83;1.35;;;5.00;80.10;;;;;;5026864;28;20083;-65
2023/03/15 03:30:51;;;;;;;1.55;1.38;;;5.00;80.00;;;;;;5025844;28;20083;-65
2023/03/15 03:33:17;;;;;;;1.17;1.05;;;5.00;79.90;;;;;;5028763;28;20129;-65
2023/03/15 03:35:43;;;;;;;1.73;1.38;;;5.00;79.70;;;;;;5033699;28;20137;-73
2023/03/15 03:38:10;;;;;;;1.02;0.90;;;5.00;79.90;;;;;;5035187;28;20030;-73
2023/03/15 03:40:36;;;;;;;1.27;1.17;;;5.00;79.70;;;;;;5033869;28;20093;-73
2023/03/15 03:43:02;;;;;;;3.03;1.33;;;5.00;79.50;;;;;;5027465;28;20029;-71
2023/03/15 03:45:27;;;;;;;1.25;0.93;;;5.00;79.40;;;;;;5034640;28;20029;-72
2023/03/15 03:47:53;;;;;;;0.93;0.90;;;5.00;79.30;;;;;;5031024;28;20513;-70
2023/03/15 03:50:19;;;;;;;1.23;1.05;;;4.90;79.20;;;;;;5019312;28;20112;-72
2023/03/15 03:52:45;;;;;;;1.75;1.30;;;4.90;79.10;;;;;;5009450;28;20129;-73
2023/03/15 03:55:12;;;;;;;3.05;1.13;;;4.90;79.00;;;;;;5010659;28;20129;-66
2023/03/15 03:57:39;;;;;;;1.77;1.10;;;4.80;78.90;;;;;;5004730;28;20029;-66
2023/03/15 04:00:06;;;;;;;0.80;0.80;;;4.80;78.80;;;;;;5008637;28;20397;-68
2023/03/15 04:02:32;;;;;;;1.35;1.05;;;4.80;78.80;;;;;;5009195;28;20546;-67
2023/03/15 04:04:58;;;;;;;1.50;1.30;;;4.70;78.80;;;;;;5010377;28;20516;-67
2023/03/15 04:07:24;;;;;;;2.78;1.08;;;4.70;78.80;;;;;;5026493;28;20034;-68
2023/03/15 04:09:50;;;;;;;0.80;0.80;;;4.70;78.80;;;;;;5027224;28;20038;-70
2023/03/15 04:12:15;;;;;;;1.25;1.15;;;4.60;78.70;;;;;;5009208;28;20095;-72
2023/03/15 04:14:41;;;;;;;0.95;0.85;;;4.60;78.60;;;;;;5004086;28;20037;-72
2023/03/15 04:17:07;;;;;;;1.58;1.35;;;4.60;78.60;;;;;;5009381;28;20396;-72
2023/03/15 04:19:34;;;;;;;0.93;0.88;;;4.60;78.60;;;;;;5027140;28;20029;-71
2023/03/15 04:22:05;;;;;;;1.20;1.00;;;4.60;78.50;;;;;;5035474;28;20060;-72
2023/03/15 04:24:32;;;;;;;0.90;0.82;;;4.50;78.40;;;;;;5028370;28;20038;-65
2023/03/15 04:26:58;;;;;;;1.92;1.33;;;4.50;78.40;;;;;;5023987;28;20022;-72
2023/03/15 04:29:24;;;;;;;1.00;1.00;;;4.50;78.40;;;;;;5026397;28;20038;-65
2023/03/15 04:31:50;;;;;;;1.80;1.30;;;4.40;78.20;;;;;;5007587;28;20358;-66
2023/03/15 04:34:15;;;;;;;1.10;0.90;;;4.40;78.20;;;;;;5028455;28;20030;-72
2023/03/15 04:36:41;;;;;;;1.17;0.68;;;4.50;78.30;;;;;;5028571;28;20034;-65
2023/03/15 04:39:08;;;;;;;1.95;1.23;;;4.40;78.30;;;;;;5026911;28;20045;-65
2023/03/15 04:41:35;;;;;;;1.55;1.20;;;4.40;78.40;;;;;;5040117;28;20115;-66
2023/03/15 04:44:04;;;;;;;1.00;0.90;;;4.50;78.60;;;;;;5031895;28;20025;-65
2023/03/15 04:46:31;;;;;;;1.90;1.60;;;4.50;78.60;;;;;;5032121;28;20021;-72
2023/03/15 04:48:57;;;;;;;2.20;1.10;;;4.50;78.70;;;;;;5026543;28;20155;-72
2023/03/15 04:51:25;;;;;;;3.70;1.10;;;4.60;78.70;;;;;;5018971;28;20049;-72
2023/03/15 04:53:50;;;;;;;1.73;1.15;;;4.60;78.70;;;;;;5004860;28;20516;-73
2023/03/15 04:56:16;;;;;;;2.45;1.02;;;4.60;78.70;;;;;;5028498;28;20037;-66
2023/03/15 04:58:42;;;;;;;1.77;1.30;;;4.60;78.60;;;;;;5030673;28;20026;-69
2023/03/15 05:01:07;;;;;;;2.35;1.33;;;4.60;78.60;;;;;;5006844;28;20500;-72
2023/03/15 05:03:33;;;;;;;2.40;1.33;;;4.50;78.80;;;;;;5030473;28;20043;-72
2023/03/15 05:06:06;;;;;;;2.63;1.70;;;4.50;79.00;;;;;;5031164;28;20473;-72
2023/03/15 05:08:33;;;;;;;1.25;1.15;;;4.50;79.00;;;;;;5014084;28;20116;-65
2023/03/15 05:10:59;;;;;;;1.65;1.30;;;4.50;79.10;;;;;;5015364;28;20404;-72
2023/03/15 05:13:25;;;;;;;1.20;1.10;;;4.50;79.10;;;;;;4998590;28;20405;-72
2023/03/15 05:15:51;;;;;;;1.80;1.50;;;4.50;79.20;;;;;;5024879;28;20038;-73
2023/03/15 05:18:17;;;;;;;2.55;1.65;;;4.50;79.20;;;;;;5018170;28;20070;-66
2023/03/15 05:20:43;;;;;;;3.70;1.90;;;4.50;79.10;;;;;;5011927;28;20867;-65
2023/03/15 05:23:09;;;;;;;7.75;1.95;;;4.50;79.20;;;;;;5033956;28;20033;-65
2023/03/15 05:25:35;;;;;;;2.03;1.52;;;4.40;79.20;;;;;;5029992;28;20508;-65
2023/03/15 05:28:03;;;;;;;3.72;1.98;;;4.40;79.30;;;;;;5028471;28;20040;-66
2023/03/15 05:30:30;;;;;;;2.65;2.35;;;4.40;79.20;;;;;;5013651;28;20441;-65
2023/03/15 05:32:56;;;;;;;3.65;2.22;;;4.30;79.40;;;;;;5012525;28;20053;-65
2023/03/15 05:35:25;;;;;;;4.03;2.67;;;4.30;79.50;;;;;;4996302;28;20069;-66
2023/03/15 05:37:57;;;;;;;3.17;1.90;;;4.30;79.50;;;;;;5031557;28;20025;-66
2023/03/15 05:40:23;;;;;;;2.67;2.40;;;4.30;79.30;;;;;;5012825;28;20389;-65
2023/03/15 05:42:48;;;;;;;2.42;1.90;;;4.20;79.40;;;;;;5027190;28;20174;-72
2023/03/15 05:45:14;;;;;;;4.38;2.50;;;4.20;79.50;;;;;;5017991;28;20543;-65
2023/03/15 05:47:40;;;;;;;12.05;2.65;;;4.20;79.50;;;;;;5016820;28;20040;-65
2023/03/15 05:50:05;;;;;;;5.07;2.25;;;4.20;79.50;;;;;;5006605;28;20096;-72
2023/03/15 05:52:31;;;;;;;2.78;1.98;;;4.20;79.40;;;;;;5030526;28;20044;-72
2023/03/15 05:54:57;;;;;;;3.80;2.78;;;4.20;79.40;;;;;;5028576;28;20040;-72
2023/03/15 05:57:22;;;;;;;3.33;2.05;;;4.20;79.30;;;;;;5033932;28;20044;-66
2023/03/15 05:59:48;;;;;;;2.08;1.58;;;4.20;79.10;;;;;;4996963;28;20029;-65
2023/03/15 06:02:14;;;;;;;3.50;2.42;;;4.20;79.60;;;;;;5029438;28;20029;-66
2023/03/15 06:04:40;;;;;;;2.38;1.88;;;4.20;78.90;;;;;;5028654;28;20025;-65
2023/03/15 06:07:05;;;;;;;2.80;2.00;;;4.10;78.70;;;;;;5030067;28;20382;-65
2023/03/15 06:09:31;;;;;;;3.88;2.55;;;4.20;78.70;;;;;;5037862;28;20033;-66
2023/03/15 06:11:57;;;;;;;2.55;2.33;;;4.10;78.70;;;;;;5039953;28;20037;-71
2023/03/15 06:14:25;;;;;;;4.07;2.55;;;4.10;78.90;;;;;;5036563;28;20029;-65
2023/03/15 06:16:50;;;;;;;4.28;2.80;;;4.10;79.00;;;;;;5028899;28;20064;-65
2023/03/15 06:19:16;;;;;;;2.58;1.95;;;4.10;79.00;;;;;;5028899;28;20423;-65
2023/03/15 06:21:42;;;;;;;3.80;2.55;;;4.10;79.00;;;;;;5026016;28;20072;-66
2023/03/15 06:24:08;;;;;;;2.58;1.63;;;4.10;79.00;;;;;;5007128;28;20055;-65
2023/03/15 06:26:34;;;;;;;3.05;2.30;;;4.10;79.00;;;;;;5032516;28;20036;-66
2023/03/15 06:29:00;;;;;;;3.67;1.88;;;4.00;79.10;;;;;;5032605;28;20125;-71
2023/03/15 06:31:26;;;;;;;8.73;1.60;;;4.00;79.40;;;;;;5017020;28;20033;-72
2023/03/15 06:33:51;;;;;;;2.47;1.40;;;4.10;79.50;;;;;;5022354;28;20024;-65
2023/03/15 06:36:17;;;;;;;2.65;1.52;;;4.10;79.80;;;;;;5005839;28;20071;-66
2023/03/15 06:38:43;;;;;;;2.22;1.67;;;4.10;79.90;;;;;;5028630;28;20323;-65
2023/03/15 06:41:11;;;;;;;1.20;0.80;;;4.20;80.20;;;;;;5017930;28;20026;-65
2023/03/15 06:43:37;;;;;;;2.05;1.30;;;4.30;80.10;;;;;;5027097;28;20037;-65
2023/03/15 06:46:02;;;;;;;1.95;1.50;;;4.40;80.10;;;;;;5028179;28;20026;-66
2023/03/15 06:48:28;;;;;;;1.73;1.58;;;4.40;79.80;;;;;;5028337;28;20121;-64
2023/03/15 06:50:54;;;;;;;1.23;1.13;;;4.50;79.90;;;;;;5033877;28;20109;-72
2023/03/15 06:53:20;;;;;;;2.00;1.33;;;4.50;79.90;;;;;;5008505;28;20589;-72
2023/03/15 06:55:46;;;;;;;1.23;1.05;;;4.50;79.80;;;;;;5013869;28;20063;-66
2023/03/15 06:58:12;;;;;;;1.50;1.40;;;4.50;79.80;;;;;;5009270;28;20412;-65
2023/03/15 07:00:38;;;;;;;1.92;1.48;;;4.50;80.40;;;;;;5011907;28;20057;-64
2023/03/15 07:03:04;;;;;;;2.40;1.20;;;4.50;79.80;;;;;;5014316;28;20493;-64
2023/03/15 07:05:30;;;;;;;1.17;0.88;;;4.60;79.80;;;;;;5031142;28;20469;-70
2023/03/15 07:07:56;;;;;;;3.05;1.73;;;4.60;79.70;;;;;;5032263;28;20029;-73
2023/03/15 07:10:23;;;;;;;2.03;1.20;;;4.60;79.80;;;;;;5031666;28;20033;-71
2023/03/15 07:12:49;;;;;;;1.13;0.90;;;4.70;79.90;;;;;;5004193;28;20348;-65
2023/03/15 07:15:15;;;;;;;1.60;1.13;;;4.70;79.80;;;;;;5009477;28;20033;-65
2023/03/15 07:17:40;;;;;;;0.60;0.60;;;4.80;79.80;;;;;;5019388;28;20037;-66
2023/03/15 07:20:07;;;;;;;0.80;0.80;;;4.90;79.70;;;;;;5029276;28;20045;-72
2023/03/15 07:22:33;;;;;;;1.17;1.08;;;4.90;80.20;;;;;;5027060;28;20021;-73
2023/03/15 07:24:58;;;;;;;1.27;1.10;;;5.00;79.50;;;;;;5007066;28;20037;-70
2023/03/15 07:27:24;;;;;;;2.92;1.48;;;5.00;79.60;;;;;;5027950;28;20076;-74
2023/03/15 07:29:50;;;;;;;1.00;0.90;;;5.10;79.70;;;;;;5014104;28;20044;-72
2023/03/15 07:32:16;;;;;;;2.00;1.05;;;5.10;79.70;;;;;;5026403;28;20048;-72
2023/03/15 07:34:42;;;;;;;2.15;1.15;;;5.20;79.60;;;;;;5011268;28;20091;-65
2023/03/15 07:37:08;;;;;;;1.55;0.73;;;5.20;79.40;;;;;;5019954;28;20053;-65
2023/03/15 07:39:33;;;;;;;2.75;1.02;;;5.30;80.10;;;;;;5007686;28;20021;-70
2023/03/15 07:41:59;;;;;;;1.50;1.15;;;5.30;79.40;;;;;;5023162;28;20033;-71
2023/03/15 07:44:25;;;;;;;3.35;1.38;;;5.40;79.30;;;;;;5021007;28;20030;-64
2023/03/15 07:46:51;;;;;;;1.00;0.75;;;5.40;79.30;;;;;;5014222;28;20109;-72
2023/03/15 07:49:17;;;;;;;2.35;1.25;;;5.40;79.20;;;;;;5028391;28;20104;-76
2023/03/15 07:51:42;;;;;;;2.78;1.17;;;5.50;79.20;;;;;;5023105;28;20051;-67
2023/03/15 07:54:08;;;;;;;1.50;0.60;;;5.60;79.10;;;;;;5025783;28;20095;-69
2023/03/15 07:56:34;;;;;;;3.58;1.42;;;5.60;79.00;;;;;;5004535;28;20033;-70
2023/03/15 07:59:00;;;;;;;3.42;0.60;;;5.60;79.00;;;;;;5029856;28;20429;-71
2023/03/15 08:01:26;;;;;;;1.40;0.98;;;5.70;79.00;;;;;;5019781;28;20037;-72
2023/03/15 08:03:52;;;;;;;2.70;1.02;;;5.80;78.90;;;;;;5013890;28;20029;-66
2023/03/15 08:06:17;;;;;;;0.63;0.57;;;5.80;78.70;;;;;;5008614;28;20041;-71
2023/03/15 08:08:43;;;;;;;1.63;0.90;;;5.90;78.60;;;;;;5023164;28;20030;-66
2023/03/15 08:11:09;;;;;;;1.52;0.82;;;6.10;78.50;;;;;;4995007;28;20037;-66
2023/03/15 08:13:36;;;;;;;0.95;0.70;;;6.20;78.30;;;;;;5016901;28;20044;-65
2023/03/15 08:16:01;;;;;;;1.45;1.10;;;6.30;78.10;;;;;;5020446;28;20041;-66
2023/03/15 08:18:30;;;;;;;0.85;0.60;;;6.40;78.00;;;;;;5024991;28;20048;-67
2023/03/15 08:20:55;;;;;;;19.13;0.75;;;6.50;77.80;;;;;;5029150;28;20305;-67
2023/03/15 08:23:22;;;;;;;1.95;0.60;;;6.50;77.40;;;;;;5011409;28;20021;-70
2023/03/15 08:25:48;;;;;;;0.50;0.43;;;6.60;77.20;;;;;;5036432;28;20045;-70
2023/03/15 08:28:14;;;;;;;0.60;0.60;;;6.60;77.00;;;;;;5030262;28;20045;-69
2023/03/15 08:30:40;;;;;;;0.80;0.50;;;6.70;76.50;;;;;;5030116;28;20115;-65
2023/03/15 08:33:06;;;;;;;1.98;0.63;;;6.80;76.50;;;;;;5011470;28;20087;-69
2023/03/15 08:35:33;;;;;;;1.58;0.98;;;6.80;75.80;;;;;;5017270;28;20072;-70
2023/03/15 08:38:01;;;;;;;2.17;0.80;;;6.90;73.80;;;;;;5008225;28;20021;-70
2023/03/15 08:40:28;;;;;;;0.45;0.45;;;6.90;73.40;;;;;;5011895;28;20112;-69
2023/03/15 08:42:54;;;;;;;1.55;0.70;;;6.90;73.50;;;;;;5011005;28;20049;-73
2023/03/15 08:45:24;;;;;;;2.40;0.40;;;7.00;73.40;;;;;;5030381;28;20485;-69
2023/03/15 08:47:57;;;;;;;1.25;0.85;;;7.20;73.00;;;;;;5025371;28;20029;-66
2023/03/15 08:50:23;;;;;;;;;;;7.20;71.70;;;;;;5029074;28;20037;-65
2023/03/15 08:52:48;;;;;;;0.70;0.43;;;7.20;70.90;;;;;;5023241;28;20387;-71
2023/03/15 08:55:14;;;;;;;0.40;0.40;;;7.20;71.00;;;;;;5023584;28;20041;-71
2023/03/15 08:57:41;;;;;;;1.42;0.77;;;7.30;70.00;;;;;;5004764;28;20033;-73
2023/03/15 09:00:43;;;;;;;0.32;0.30;;;7.40;70.30;;;;;;5008585;28;20044;-73
2023/03/15 09:03:03;;;;;;;1.00;0.57;;;7.50;70.50;;;;;;5026746;28;20030;-64
2023/03/15 09:05:28;;;;;;;0.47;0.40;;;7.70;70.40;;;;;;5029743;28;20033;-63
2023/03/15 09:07:54;;;;;;;0.82;0.40;;;7.80;69.90;;;;;;5011295;28;20056;-63
2023/03/15 09:10:21;;;;;;;1.15;0.52;;;7.80;69.10;;;;;;5030069;28;20063;-70
2023/03/15 09:12:49;;;;;;;0.55;0.38;;;8.00;69.20;;;;;;5027728;28;20052;-72
2023/03/15 09:15:15;;;;;;;3.00;0.60;;;8.00;67.80;;;;;;5041685;28;20163;-73
2023/03/15 09:17:42;;;;;;;3.30;0.90;;;8.10;67.90;;;;;;5020154;28;20034;-73
2023/03/15 09:20:13;;;;;;;4.72;0.63;;;8.20;67.60;;;;;;5005690;28;20032;-73
2023/03/15 09:22:40;;;;;;;1.08;0.20;;;8.30;66.80;;;;;;5026269;28;20025;-64
2023/03/15 09:25:07;;;;;;;2.33;1.23;;;8.40;67.00;;;;;;5005661;28;20061;-72
2023/03/15 09:27:33;;;;;;;0.30;0.30;;;8.40;65.50;;;;;;5029478;28;20045;-64
2023/03/15 09:29:59;;;;;;;0.52;0.40;;;8.20;65.90;;;;;;5010648;28;20079;-73
2023/03/15 09:32:25;;;;;;;0.25;0.25;;;8.20;66.40;;;;;;5030912;28;20041;-73
2023/03/15 09:34:51;;;;;;;1.65;0.57;;;8.30;66.40;;;;;;5010992;28;20044;-74
2023/03/15 09:37:17;;;;;;;1.33;0.63;;;8.40;65.80;;;;;;5022796;28;20041;-73
2023/03/15 09:39:43;;;;;;;0.47;0.40;;;8.60;65.40;;;;;;5024522;28;20052;-73
2023/03/15 09:42:34;;;;;;;1.02;0.52;;;8.70;65.20;;;;;;5032584;28;20037;-73
2023/03/15 09:45:27;;;;;;;4.03;0.68;;;9.00;65.10;;;;;;5031853;28;20461;-64
2023/03/15 09:48:14;;;;;;;1.05;0.38;;;9.20;64.10;;;;;;5013047;28;20029;-64
2023/03/15 09:51:01;;;;;;;3.83;0.70;;;9.30;62.10;;;;;;5030583;28;20021;-64
2023/03/15 09:53:38;;;;;;;0.50;0.30;;;9.40;61.90;;;;;;5026314;28;20036;-64
2023/03/15 09:56:17;;;;;;;0.38;0.35;;;9.40;60.60;;;;;;5027437;28;20392;-64
2023/03/15 09:58:43;;;;;;;2.00;0.50;;;9.50;61.20;;;;;;5030363;28;20030;-72
2023/03/15 10:01:12;;;;;;;0.40;0.40;;;9.70;61.60;;;;;;5024761;28;20057;-72
2023/03/15 10:03:52;;;;;;;0.95;0.30;;;9.90;60.30;;;;;;5030637;28;20017;-73
2023/03/15 10:06:23;;;;;;;0.30;0.28;;;10.00;58.80;;;;;;5021285;28;20030;-63
2023/03/15 10:08:54;;;;;;;1.40;0.68;;;10.00;57.80;;;;;;5032254;28;20049;-72
2023/03/15 10:11:44;;;;;;;4.45;0.60;;;10.00;57.80;;;;;;5031805;28;20032;-72
2023/03/15 10:14:23;;;;;;;2.72;1.00;;;10.00;58.00;;;;;;5030367;28;20104;-73
2023/03/15 10:16:50;;;;;;;9.18;1.10;;;10.10;57.50;;;;;;5024957;28;20388;-73
2023/03/15 10:19:34;;;;;;;0.35;0.25;;;10.20;57.30;;;;;;5032676;28;20032;-71
2023/03/15 10:22:24;;;;;;;0.65;0.50;;;10.20;57.00;;;;;;5029520;28;20129;-64
2023/03/15 10:25:16;;;;;;;0.38;0.38;;;10.30;57.20;;;;;;5032668;28;20180;-64
2023/03/15 10:27:45;;;;;;;1.55;0.60;;;10.50;57.00;;;;;;5030034;28;20045;-63
2023/03/15 10:30:20;;;;;;;4.97;1.10;;;10.50;57.20;;;;;;5032477;28;20041;-64
2023/03/15 10:32:55;;;;;;;5.72;0.85;;;10.60;56.20;;;;;;5030852;28;20016;-65
2023/03/15 10:35:20;;;;;;;0.20;0.20;;;10.70;55.50;;;;;;5026523;28;20217;-64
2023/03/15 10:37:47;;;;;;;2.47;0.65;;;11.00;55.10;;;;;;5039940;28;20021;-64
2023/03/15 10:40:17;;;;;;;0.80;0.40;;;11.00;54.30;;;;;;5037056;28;20033;-73
2023/03/15 10:42:44;;;;;;;0.88;0.50;;;11.10;54.80;;;;;;4996329;28;20108;-72
2023/03/15 10:45:21;;;;;;;1.30;0.43;;;11.10;54.30;;;;;;5028770;28;20491;-73
2023/03/15 10:47:48;;;;;;;2.53;0.38;;;11.20;55.00;;;;;;5007790;28;20353;-63
2023/03/15 10:50:28;;;;;;;2.42;0.47;;;11.30;54.60;;;;;;5026566;28;20033;-72
2023/03/15 10:52:56;;;;;;;1.38;0.60;;;11.60;54.40;;;;;;5026649;28;20037;-72
2023/03/15 10:55:35;;;;;;;2.25;0.60;;;11.80;54.30;;;;;;5024916;28;20047;-73
2023/03/15 10:58:27;;;;;;;0.85;0.60;;;12.10;53.30;;;;;;5031379;28;20035;-72
2023/03/15 11:01:00;;;;;;;1.02;0.68;;;12.10;49.30;;;;;;5029542;28;20024;-64
2023/03/15 11:03:27;;;;;;;0.65;0.60;;;11.90;49.30;;;;;;5023299;28;20029;-63
2023/03/15 11:05:56;;;;;;;1.02;0.75;;;11.80;48.30;;;;;;4995327;28;20120;-75
2023/03/15 11:08:41;;;;;;;4.05;0.52;;;11.70;49.50;;;;;;5028036;28;20029;-72
2023/03/15 11:11:08;;;;;;;1.38;0.70;;;11.80;49.40;;;;;;5031244;28;20056;-72
2023/03/15 11:13:39;;;;;;;0.55;0.43;;;11.90;49.30;;;;;;5026350;28;20100;-72
2023/03/15 11:16:12;;;;;;;1.90;0.52;;;12.00;49.80;;;;;;5017404;28;20548;-73
2023/03/15 11:18:52;;;;;;;0.43;0.35;;;12.10;48.10;;;;;;5033831;28;20021;-73
2023/03/15 11:21:19;;;;;;;0.40;0.38;;;12.30;48.60;;;;;;5027749;28;20064;-73
2023/03/15 11:23:48;;;;;;;2.42;0.57;;;12.40;47.50;;;;;;5025310;28;20028;-64
2023/03/15 11:26:25;;;;;;;2.75;1.13;;;12.20;46.40;;;;;;5028051;28;20041;-70
2023/03/15 11:28:55;;;;;;;0.28;0.28;;;11.90;46.80;;;;;;5023280;28;20067;-64
2023/03/15 11:31:25;;;;;;;1.20;0.43;;;11.70;48.00;;;;;;5031579;28;20116;-73
2023/03/15 11:34:06;;;;;;;2.13;0.73;;;11.60;47.60;;;;;;5029792;28;20030;-63
2023/03/15 11:36:35;;;;;;;0.73;0.45;;;11.60;48.70;;;;;;5027031;28;20113;-65
2023/03/15 11:39:03;;;;;;;1.48;0.73;;;11.80;48.00;;;;;;5024223;28;20014;-64
2023/03/15 11:41:43;;;;;;;0.90;0.75;;;11.90;46.30;;;;;;5021236;28;20029;-64
2023/03/15 11:44:22;;;;;;;3.38;0.70;;;11.90;46.50;;;;;;5012065;28;20419;-63
2023/03/15 11:47:02;;;;;;;0.30;0.30;;;12.10;45.40;;;;;;5026917;28;20033;-64
2023/03/15 11:49:36;;;;;;;3.85;0.45;;;12.30;45.50;;;;;;5013102;28;20374;-64
2023/03/15 11:52:03;;;;;;;1.55;0.50;;;12.50;44.20;;;;;;5023260;28;20033;-63
2023/03/15 11:54:31;;;;;;;3.15;0.40;;;12.50;44.00;;;;;;5025328;28;20455;-63
2023/03/15 11:57:02;;;;;;;0.40;0.40;;;12.60;43.20;;;;;;5025134;28;20045;-63
2023/03/15 11:59:36;;;;;;;2.63;0.73;;;12.60;43.20;;;;;;5024984;28;20432;-64
2023/03/15 12:02:08;;;;;;;0.55;0.38;;;13.00;43.00;;;;;;5011963;28;20113;-63
2023/03/15 12:04:34;;;;;;;0.88;0.40;;;13.00;42.20;;;;;;5009085;28;20033;-63
2023/03/15 12:07:25;;;;;;;0.40;0.40;;;13.00;43.30;;;;;;5023185;28;20136;-73
2023/03/15 12:09:54;;;;;;;3.38;0.47;;;13.10;42.80;;;;;;5021946;28;20040;-74
2023/03/15 12:12:25;;;;;;;0.30;0.30;;;13.20;42.50;;;;;;5010663;28;20018;-73
2023/03/15 12:15:04;;;;;;;0.80;0.80;;;13.30;41.60;;;;;;5033177;28;20519;-73
2023/03/15 12:17:29;;;;;;;1.45;0.47;;;13.30;41.70;;;;;;5021262;28;20163;-73
2023/03/15 12:19:58;;;;;;;0.30;0.30;;;13.30;41.80;;;;;;5033608;28;20100;-73
2023/03/15 12:22:29;;;;;;;3.00;0.55;;;13.20;39.50;;;;;;5027061;28;20026;-71
2023/03/15 12:25:03;;;;;;;1.27;0.68;;;13.20;40.50;;;;;;5029075;28;20045;-73
2023/03/15 12:27:29;;;;;;;0.80;0.57;;;13.30;41.10;;;;;;5020420;28;20045;-71
2023/03/15 12:30:00;;;;;;;0.60;0.30;;;13.40;40.50;;;;;;4997462;28;20046;-70
2023/03/15 12:32:29;;;;;;;2.28;0.63;;;13.50;40.50;;;;;;5026228;28;20033;-71
2023/03/15 12:35:07;;;;;;;1.13;0.40;;;13.60;40.10;;;;;;5024890;28;20048;-66
2023/03/15 12:37:47;;;;;;;1.15;0.60;;;13.60;40.30;;;;;;5004949;28;20022;-66
2023/03/15 12:40:19;;;;;;;0.32;0.30;;;13.70;39.40;;;;;;5020535;28;20499;-66
2023/03/15 12:42:47;;;;;;;0.32;0.30;;;14.00;39.70;;;;;;5023171;28;20032;-65
2023/03/15 12:45:16;;;;;;;0.68;0.30;;;14.30;38.50;;;;;;5017633;28;20144;-64
2023/03/15 12:47:51;;;;;;;1.52;0.50;;;14.30;38.10;;;;;;5023353;28;20025;-64
2023/03/15 12:50:37;;;;;;;0.68;0.38;;;14.20;37.80;;;;;;5001210;28;20033;-65
2023/03/15 12:53:14;;;;;;;2.20;0.50;;;14.10;37.60;;;;;;5018742;28;20091;-65
2023/03/15 12:55:40;;;;;;;1.27;0.88;;;14.00;38.20;;;;;;5005631;28;20029;-66
2023/03/15 12:58:11;;;;;;;1.67;0.80;;;14.00;38.90;;;;;;5024501;28;20373;-66
2023/03/15 13:00:40;;;;;;;0.90;0.77;;;14.10;39.50;;;;;;5027725;28;20065;-65
2023/03/15 13:03:17;;;;;;;1.00;0.70;;;14.30;38.90;;;;;;5020174;28;20026;-74
2023/03/15 13:05:55;;;;;;;0.30;0.30;;;14.20;38.30;;;;;;5032407;28;20391;-67